createdAt,value
2023-05-20T00:04:57.787Z,4.00
2023-05-20T00:10:59.715Z,5.73
2023-05-20T00:17:01.772Z,3.70
2023-05-20T00:23:03.788Z,23.60
2023-05-20T00:35:08.519Z,12.57
2023-05-20T00:41:10.642Z,2.70
2023-05-20T00:47:13.081Z,3.47
2023-05-20T00:53:18.508Z,2.43
2023-05-20T00:59:21.046Z,3.23
2023-05-20T01:05:23.184Z,2.67
2023-05-20T01:11:38.815Z,2.27
2023-05-20T01:17:46.807Z,2.97
2023-05-20T01:23:48.976Z,2.87
2023-05-20T01:29:52.756Z,2.80
2023-05-20T01:35:55.700Z,2.40
2023-05-20T01:41:59.026Z,2.20
2023-05-20T01:48:01.861Z,2.60
2023-05-20T01:54:04.028Z,2.70
2023-05-20T02:00:07.002Z,2.50
2023-05-20T02:06:09.033Z,3.10
2023-05-20T02:12:16.442Z,2.90
2023-05-20T02:18:18.779Z,2.87
2023-05-20T02:24:21.324Z,3.47
2023-05-20T02:30:23.310Z,3.97
2023-05-20T02:36:25.806Z,3.00
2023-05-20T02:42:27.746Z,4.13
2023-05-20T02:48:29.737Z,3.33
2023-05-20T02:54:31.806Z,3.03
2023-05-20T03:00:40.680Z,3.57
2023-05-20T03:06:44.498Z,2.90
2023-05-20T03:12:46.544Z,4.50
2023-05-20T03:18:49.626Z,4.50
2023-05-20T03:24:52.880Z,3.40
2023-05-20T03:30:54.865Z,3.37
2023-05-20T03:36:57.492Z,4.37
2023-05-20T03:42:59.438Z,3.70
2023-05-20T03:49:05.593Z,3.27
2023-05-20T03:55:08.172Z,5.03
2023-05-20T04:01:13.276Z,4.20
2023-05-20T04:07:15.223Z,3.97
2023-05-20T04:13:17.315Z,3.50
2023-05-20T04:19:24.281Z,5.53
2023-05-20T04:25:27.488Z,4.60
2023-05-20T04:31:30.692Z,4.40
2023-05-20T04:37:34.894Z,4.20
2023-05-20T04:43:38.972Z,4.43
2023-05-20T04:49:41.193Z,3.93
2023-05-20T04:55:43.357Z,5.67
2023-05-20T05:01:45.389Z,5.60
2023-05-20T05:07:47.357Z,5.40
2023-05-20T05:13:49.407Z,4.93
2023-05-20T05:19:51.853Z,4.80
2023-05-20T05:25:54.336Z,5.00
2023-05-20T05:31:56.306Z,5.00
2023-05-20T05:37:58.290Z,7.60
2023-05-20T05:44:00.284Z,5.33
2023-05-20T05:50:02.249Z,5.17
2023-05-20T05:56:04.457Z,5.10
2023-05-20T06:02:06.831Z,5.30
2023-05-20T06:08:08.872Z,5.97
2023-05-20T06:14:10.836Z,6.30
2023-05-20T06:20:13.116Z,6.30
2023-05-20T06:26:15.145Z,5.80
2023-05-20T06:32:17.080Z,6.70
2023-05-20T06:38:20.149Z,6.23
2023-05-20T06:44:22.167Z,5.90
2023-05-20T06:50:25.033Z,5.37
2023-05-20T06:56:27.000Z,5.60
2023-05-20T07:02:29.008Z,5.80
2023-05-20T07:08:30.968Z,5.53
2023-05-20T07:14:32.963Z,5.50
2023-05-20T07:20:34.947Z,5.20
2023-05-20T07:26:36.883Z,5.10
2023-05-20T07:32:38.935Z,5.40
2023-05-20T07:38:43.020Z,4.47
2023-05-20T07:44:51.902Z,5.00
2023-05-20T07:50:54.005Z,5.50
2023-05-20T07:56:55.976Z,4.67
2023-05-20T08:02:58.078Z,4.00
2023-05-20T08:09:03.990Z,3.63
2023-05-20T08:21:26.725Z,3.53
2023-05-20T08:27:28.698Z,4.10
2023-05-20T08:33:30.722Z,3.77
2023-05-20T08:39:32.730Z,3.10
2023-05-20T08:45:39.078Z,3.53
2023-05-20T08:51:42.940Z,3.17
2023-05-20T08:57:45.940Z,2.87
2023-05-20T09:03:47.959Z,2.57
2023-05-20T09:09:49.942Z,2.90
2023-05-20T09:15:51.982Z,2.90
2023-05-20T09:21:58.421Z,3.07
2023-05-20T09:28:00.427Z,3.20
2023-05-20T09:34:03.547Z,3.77
2023-05-20T09:40:09.896Z,3.70
2023-05-20T09:46:11.939Z,4.40
2023-05-20T09:52:16.558Z,3.70
2023-05-20T09:58:20.753Z,4.65
2023-05-20T10:04:24.285Z,4.97
2023-05-20T10:10:48.455Z,5.10
2023-05-20T10:17:21.018Z,5.83
2023-05-20T10:23:31.502Z,5.73
2023-05-20T10:30:16.034Z,5.00
2023-05-20T10:36:31.728Z,5.50
2023-05-20T10:42:33.948Z,5.40
2023-05-20T10:48:43.123Z,5.73
2023-05-20T10:54:58.480Z,5.23
2023-05-20T11:01:01.809Z,5.40
2023-05-20T11:07:04.337Z,5.00
2023-05-20T11:13:06.583Z,5.03
2023-05-20T11:19:14.580Z,5.90
2023-05-20T11:25:18.480Z,5.27
2023-05-20T11:31:21.903Z,5.33
2023-05-20T11:37:24.906Z,5.27
2023-05-20T11:43:26.853Z,6.20
2023-05-20T11:49:29.081Z,5.50
2023-05-20T11:55:35.569Z,6.47
2023-05-20T12:01:43.324Z,6.47
2023-05-20T12:07:45.622Z,6.93
2023-05-20T12:13:47.564Z,6.23
2023-05-20T12:19:49.475Z,6.07
2023-05-20T12:25:51.435Z,6.07
2023-05-20T12:31:56.757Z,6.77
2023-05-20T12:37:58.765Z,6.47
2023-05-20T12:44:01.102Z,7.37
2023-05-20T12:50:03.803Z,6.27
2023-05-20T12:56:06.224Z,6.30
2023-05-20T13:02:10.704Z,6.97
2023-05-20T13:08:14.689Z,7.03
2023-05-20T13:14:17.538Z,7.70
2023-05-20T13:20:20.127Z,8.10
2023-05-20T13:26:22.084Z,8.80
2023-05-20T13:32:25.266Z,8.37
2023-05-20T13:44:36.993Z,8.80
2023-05-20T13:50:38.975Z,9.20
2023-05-20T13:56:41.280Z,8.40
2023-05-20T14:02:43.319Z,9.37
2023-05-20T14:08:46.267Z,8.73
2023-05-20T14:14:48.259Z,8.87
2023-05-20T14:20:50.266Z,9.03
2023-05-20T14:26:52.445Z,10.50
2023-05-20T14:32:54.464Z,9.60
2023-05-20T14:38:56.550Z,9.17
2023-05-20T14:44:58.503Z,10.30
2023-05-20T14:51:00.687Z,9.40
2023-05-20T14:57:03.955Z,9.50
2023-05-20T15:03:06.456Z,10.27
2023-05-20T15:09:08.605Z,11.17
2023-05-20T15:15:11.627Z,10.60
2023-05-20T15:21:13.628Z,10.10
2023-05-20T15:27:15.591Z,10.07
2023-05-20T15:33:17.631Z,8.97
2023-05-20T15:39:19.863Z,9.67
2023-05-20T15:45:21.797Z,9.43
2023-05-20T15:51:24.103Z,8.60
2023-05-20T15:57:26.077Z,8.20
2023-05-20T16:03:29.056Z,8.60
2023-05-20T16:09:31.162Z,9.03
2023-05-20T16:15:36.389Z,8.33
2023-05-20T16:21:38.428Z,7.47
2023-05-20T16:27:40.531Z,7.33
2023-05-20T16:33:42.493Z,8.00
2023-05-20T16:39:44.409Z,7.57
2023-05-20T16:45:46.408Z,6.83
2023-05-20T16:51:48.518Z,6.73
2023-05-20T16:57:50.900Z,6.70
2023-05-20T17:03:52.848Z,6.77
2023-05-20T17:09:54.798Z,6.80
2023-05-20T17:15:56.790Z,6.97
2023-05-20T17:21:58.759Z,6.40
2023-05-20T17:28:01.092Z,5.73
2023-05-20T17:34:03.086Z,6.37
2023-05-20T17:40:06.029Z,5.80
2023-05-20T17:46:08.020Z,6.70
2023-05-20T17:52:10.280Z,6.10
2023-05-20T17:58:12.286Z,6.03
2023-05-20T18:04:14.384Z,6.57
2023-05-20T18:10:16.696Z,6.03
2023-05-20T18:16:18.714Z,6.87
2023-05-20T18:22:20.926Z,5.27
2023-05-20T18:28:22.885Z,6.73
2023-05-20T18:34:24.861Z,5.50
2023-05-20T18:40:28.143Z,5.80
2023-05-20T18:46:31.124Z,7.20
2023-05-20T18:52:33.137Z,6.60
2023-05-20T18:58:35.074Z,6.83
2023-05-20T19:04:37.017Z,6.47
2023-05-20T19:10:38.983Z,6.30
2023-05-20T19:16:41.176Z,7.30
2023-05-20T19:22:43.219Z,6.70
2023-05-20T19:28:45.207Z,6.33
2023-05-20T19:34:47.210Z,6.33
2023-05-20T19:40:49.236Z,7.07
2023-05-20T19:46:51.575Z,6.67
2023-05-20T19:52:53.499Z,7.23
2023-05-20T19:58:56.477Z,7.47
2023-05-20T20:04:59.306Z,7.60
2023-05-20T20:11:01.341Z,7.40
2023-05-20T20:17:03.368Z,7.13
2023-05-20T20:23:07.819Z,7.67
2023-05-20T20:29:09.985Z,7.60
2023-05-20T20:35:11.919Z,7.00
2023-05-20T20:41:16.195Z,7.67
2023-05-20T20:47:18.672Z,8.37
2023-05-20T20:53:20.636Z,8.70
2023-05-20T20:59:26.117Z,7.67
2023-05-20T21:05:28.946Z,7.67
2023-05-20T21:11:30.915Z,7.17
2023-05-20T21:17:32.839Z,7.33
2023-05-20T21:23:34.752Z,7.97
2023-05-20T21:29:39.621Z,8.67
2023-05-20T21:35:42.240Z,7.77
2023-05-20T21:41:44.233Z,8.30
2023-05-20T21:47:46.406Z,8.30
2023-05-20T21:53:48.383Z,9.10
2023-05-20T21:59:50.339Z,8.40
2023-05-20T22:05:52.669Z,9.30
2023-05-20T22:11:55.209Z,8.30
2023-05-20T22:17:57.369Z,8.47
2023-05-20T22:23:59.287Z,9.23
2023-05-20T22:30:01.916Z,8.80
2023-05-20T22:36:03.970Z,9.37
2023-05-20T22:42:06.226Z,8.50
2023-05-20T22:48:08.311Z,9.70
2023-05-20T22:54:10.492Z,8.27
2023-05-20T23:00:15.448Z,8.30
2023-05-20T23:06:17.359Z,9.00
2023-05-20T23:12:19.304Z,8.40
2023-05-20T23:18:21.415Z,8.97
2023-05-20T23:24:23.401Z,8.33
2023-05-20T23:30:25.411Z,8.93
2023-05-20T23:36:29.080Z,8.37
2023-05-20T23:42:31.753Z,10.60
2023-05-20T23:48:33.679Z,10.53
2023-05-20T23:54:35.622Z,9.50
